Time;durP1;ratioP1;P1;durP2;ratioP2;P2;SDS_P1;SDS_P2;PMS_P1;PMS_P2;Temp;Humidity;BMP_temperature;BMP_pressure;BME280_temperature;BME280_humidity;BME280_pressure;Samples;Min_cycle;Max_cycle;Signal;HPM_P1;HPM_P2
2022/04/23 00:00:16;;;;;;;15.93;9.50;;;;;;;12.08;69.60;98088.41;4289121;33;34598;-66
2022/04/23 00:02:44;;;;;;;16.50;10.15;;;;;;;11.33;72.46;98085.81;4289694;33;34355;-66
2022/04/23 00:05:12;;;;;;;15.27;10.20;;;;;;;11.70;72.22;98098.44;4275494;33;33576;-66
2022/04/23 00:07:40;;;;;;;18.10;10.65;;;;;;;11.69;71.37;98095.87;4289988;33;35865;-65
2022/04/23 00:10:09;;;;;;;15.35;9.88;;;;;;;10.82;75.87;98098.75;4289074;33;34516;-66
2022/04/23 00:12:37;;;;;;;16.80;10.30;;;;;;;10.85;77.46;98096.94;4290010;33;33137;-65
2022/04/23 00:15:06;;;;;;;17.75;11.23;;;;;;;11.10;76.30;98097.00;4289165;33;33783;-66
2022/04/23 00:17:34;;;;;;;15.25;10.35;;;;;;;10.24;80.38;98101.34;4289508;33;34504;-66
2022/04/23 00:20:03;;;;;;;20.42;11.68;;;;;;;10.53;79.59;98097.06;4288612;33;34524;-65
2022/04/23 00:22:31;;;;;;;20.55;12.45;;;;;;;9.79;83.55;98104.34;4288746;33;33810;-66
2022/04/23 00:24:59;;;;;;;19.77;12.43;;;;;;;9.50;84.63;98107.75;4289759;33;34686;-65
2022/04/23 00:27:27;;;;;;;21.58;12.00;;;;;;;9.72;84.00;98104.56;4288739;33;35909;-65
2022/04/23 00:29:55;;;;;;;18.55;11.50;;;;;;;9.70;83.52;98102.00;4289665;33;34425;-65
2022/04/23 00:32:23;;;;;;;18.25;11.52;;;;;;;9.71;83.72;98105.47;4288935;33;34368;-66
2022/04/23 00:34:51;;;;;;;20.77;12.37;;;;;;;10.18;82.02;98108.47;4285173;33;33557;-65
2022/04/23 00:37:19;;;;;;;20.62;12.15;;;;;;;9.83;83.99;98100.78;4287129;33;34927;-66
2022/04/23 00:39:48;;;;;;;19.52;13.10;;;;;;;9.95;83.24;98102.19;4289586;33;34438;-65
2022/04/23 00:42:17;;;;;;;18.02;10.77;;;;;;;10.69;79.47;98097.44;4288722;33;33511;-65
2022/04/23 00:44:45;;;;;;;19.17;11.50;;;;;;;10.88;78.70;98097.69;4289428;33;34885;-65
2022/04/23 00:47:13;;;;;;;21.62;12.45;;;;;;;11.04;77.74;98108.47;4288237;33;35083;-66
2022/04/23 00:49:41;;;;;;;18.45;11.55;;;;;;;10.88;78.09;98102.06;4275081;33;34234;-66
2022/04/23 00:52:09;;;;;;;18.92;11.77;;;;;;;10.77;77.83;98108.47;4282174;33;34270;-66
2022/04/23 00:54:38;;;;;;;18.37;12.00;;;;;;;11.35;75.07;98107.47;4289387;33;34939;-66
2022/04/23 00:57:07;;;;;;;17.37;11.35;;;;;;;11.03;76.38;98106.78;4288435;33;35956;-66
2022/04/23 00:59:35;;;;;;;16.75;11.55;;;;;;;10.75;77.69;98107.66;4289323;33;34545;-66
2022/04/23 01:02:03;;;;;;;16.50;9.95;;;;;;;11.20;76.13;98107.06;4288513;33;33686;-66
2022/04/23 01:04:31;;;;;;;17.62;10.35;;;;;;;11.61;73.57;98108.34;4276817;33;33995;-66
2022/04/23 01:06:59;;;;;;;18.65;10.60;;;;;;;11.46;73.86;98104.50;4284278;33;35133;-65
2022/04/23 01:09:28;;;;;;;15.40;9.88;;;;;;;10.91;75.92;98105.44;4288128;33;35176;-66
2022/04/23 01:11:59;;;;;;;15.95;10.02;;;;;;;10.93;76.88;98108.84;4289969;33;33635;-66
2022/04/23 01:14:27;;;;;;;18.15;11.43;;;;;;;10.91;77.41;98112.41;4291219;33;34603;-65
2022/04/23 01:16:55;;;;;;;17.05;10.80;;;;;;;10.94;77.44;98107.06;4290078;33;35023;-66
2022/04/23 01:19:25;;;;;;;16.80;10.77;;;;;;;10.85;78.50;98112.56;4291027;33;34308;-66
2022/04/23 01:21:54;;;;;;;18.17;10.98;;;;;;;10.43;81.25;98112.09;4289875;33;33698;-65
2022/04/23 01:24:22;;;;;;;17.73;11.30;;;;;;;10.77;79.98;98118.03;4290500;33;34754;-66
2022/04/23 01:26:50;;;;;;;17.67;10.70;;;;;;;10.88;78.82;98122.91;4290026;33;34918;-66
2022/04/23 01:29:18;;;;;;;14.52;9.93;;;;;;;10.77;79.78;98108.47;4290962;33;35254;-67
2022/04/23 01:31:46;;;;;;;18.60;11.40;;;;;;;10.95;79.26;98104.41;4289980;33;33334;-66
2022/04/23 01:34:14;;;;;;;18.62;10.80;;;;;;;10.78;79.20;98112.78;4291048;33;34996;-65
2022/04/23 01:36:42;;;;;;;20.42;11.73;;;;;;;10.48;81.89;98105.91;4290061;33;35020;-65
2022/04/23 01:39:10;;;;;;;16.77;11.27;;;;;;;10.89;80.44;98106.34;4288143;33;35364;-66
2022/04/23 01:41:38;;;;;;;20.73;11.68;;;;;;;10.73;80.54;98114.69;4283060;33;33607;-66
2022/04/23 01:44:06;;;;;;;18.80;11.98;;;;;;;10.58;80.84;98113.38;4290904;33;34239;-66
2022/04/23 01:46:34;;;;;;;18.83;11.23;;;;;;;10.61;81.49;98110.69;4289950;33;35899;-66
2022/04/23 01:49:02;;;;;;;19.37;12.23;;;;;;;11.33;77.97;98114.47;4291066;33;35337;-66
2022/04/23 01:51:30;;;;;;;21.85;12.85;;;;;;;10.69;81.90;98118.25;4288394;33;33720;-65
2022/04/23 01:53:58;;;;;;;21.67;12.18;;;;;;;10.70;81.39;98109.56;4285261;33;33687;-65
2022/04/23 01:56:26;;;;;;;22.98;13.15;;;;;;;10.95;80.29;98119.19;4282535;33;35008;-65
2022/04/23 01:58:54;;;;;;;25.90;12.93;;;;;;;10.76;80.56;98117.16;4290628;33;34076;-71
2022/04/23 02:01:22;;;;;;;19.23;12.20;;;;;;;10.57;81.77;98118.63;4289807;33;33099;-66
2022/04/23 02:03:51;;;;;;;23.92;13.68;;;;;;;10.89;80.25;98119.37;4290645;33;34764;-65
2022/04/23 02:06:19;;;;;;;20.17;12.75;;;;;;;10.74;81.09;98124.19;4289654;33;34808;-65
2022/04/23 02:08:49;;;;;;;21.50;12.57;;;;;;;10.40;82.78;98127.81;4288202;33;34455;-66
2022/04/23 02:11:17;;;;;;;25.23;13.30;;;;;;;10.38;83.73;98124.41;4277358;33;33601;-65
2022/04/23 02:13:47;;;;;;;24.08;14.15;;;;;;;10.59;81.87;98124.66;4276236;33;34777;-65
2022/04/23 02:16:15;;;;;;;23.30;14.35;;;;;;;10.25;83.04;98128.22;4273729;33;216216;-65
2022/04/23 02:18:43;;;;;;;24.87;14.60;;;;;;;10.01;84.56;98122.81;4290645;33;34257;-65
2022/04/23 02:21:11;;;;;;;25.20;14.57;;;;;;;9.93;86.13;98127.38;4289417;33;33551;-65
2022/04/23 02:23:39;;;;;;;22.27;14.00;;;;;;;10.22;85.30;98120.53;4290747;33;34588;-65
2022/04/23 02:26:07;;;;;;;24.25;14.52;;;;;;;10.49;82.86;98125.84;4289276;33;35173;-65
2022/04/23 02:28:38;;;;;;;22.17;13.18;;;;;;;10.82;80.83;98119.59;4278569;33;34462;-65
2022/04/23 02:31:07;;;;;;;24.17;13.55;;;;;;;10.27;83.21;98125.56;4278029;33;33629;-65
2022/04/23 02:33:35;;;;;;;23.70;14.00;;;;;;;10.63;80.97;98128.88;4290275;33;34015;-65
2022/04/23 02:36:06;;;;;;;24.40;14.35;;;;;;;10.59;80.79;98125.50;4289757;33;35926;-65
2022/04/23 02:38:35;;;;;;;20.40;13.13;;;;;;;11.06;78.97;98132.72;4290337;33;33773;-69
2022/04/23 02:41:04;;;;;;;23.83;14.65;;;;;;;10.28;81.81;98133.34;4289583;33;33665;-65
2022/04/23 02:43:35;;;;;;;26.17;13.60;;;;;;;9.63;86.12;98142.06;4285376;33;33924;-65
2022/04/23 02:46:06;;;;;;;24.12;13.65;;;;;;;10.46;82.05;98137.19;4281907;33;34849;-65
2022/04/23 02:48:35;;;;;;;24.63;13.62;;;;;;;10.36;82.63;98134.00;4289392;33;34458;-65
2022/04/23 02:51:04;;;;;;;25.20;13.32;;;;;;;10.27;81.98;98135.97;4289666;33;34457;-65
2022/04/23 02:53:32;;;;;;;21.30;13.25;;;;;;;10.93;79.53;98134.88;4290212;33;33911;-65
2022/04/23 02:56:04;;;;;;;25.15;13.82;;;;;;;10.51;81.24;98139.66;4285928;33;35198;-65
2022/04/23 02:58:34;;;;;;;20.48;13.20;;;;;;;10.36;81.92;98136.59;4287914;33;34621;-65
2022/04/23 03:01:02;;;;;;;21.70;13.65;;;;;;;10.38;81.39;98142.63;4276356;33;33378;-65
2022/04/23 03:03:30;;;;;;;22.37;14.15;;;;;;;10.86;79.00;98135.13;4290190;33;34007;-70
2022/04/23 03:05:58;;;;;;;21.15;12.80;;;;;;;10.96;79.35;98141.75;4289293;33;35944;-65
2022/04/23 03:08:26;;;;;;;25.12;13.48;;;;;;;11.41;76.95;98132.47;4283021;33;34464;-73
2022/04/23 03:10:54;;;;;;;23.27;13.60;;;;;;;10.66;80.03;98130.50;4275683;33;33524;-65
2022/04/23 03:13:23;;;;;;;23.20;13.98;;;;;;;10.24;83.40;98137.78;4290028;33;34737;-69
2022/04/23 03:15:52;;;;;;;23.30;14.45;;;;;;;9.75;85.77;98133.09;4279797;33;34877;-69
2022/04/23 03:18:20;;;;;;;23.33;13.95;;;;;;;10.94;78.88;98134.00;4288952;33;34238;-66
2022/04/23 03:20:48;;;;;;;23.45;14.30;;;;;;;10.50;81.69;98133.59;4290201;33;34207;-65
2022/04/23 03:23:16;;;;;;;20.67;13.05;;;;;;;10.76;80.58;98130.19;4289297;33;34704;-69
2022/04/23 03:25:44;;;;;;;22.20;14.10;;;;;;;10.79;79.42;98134.47;4289946;33;34606;-68
2022/04/23 03:28:14;;;;;;;21.45;12.88;;;;;;;10.96;79.11;98137.38;4289204;33;35293;-66
2022/04/23 03:30:44;;;;;;;19.40;12.25;;;;;;;10.57;79.91;98145.53;4286477;33;34547;-72
2022/04/23 03:33:13;;;;;;;23.15;12.52;;;;;;;11.02;78.69;98144.16;4287434;33;33018;-74
2022/04/23 03:35:41;;;;;;;22.80;13.23;;;;;;;11.54;75.93;98142.44;4284535;33;35129;-66
2022/04/23 03:38:09;;;;;;;22.75;13.30;;;;;;;10.87;78.53;98155.03;4287432;33;34582;-75
2022/04/23 03:40:37;;;;;;;21.58;12.30;;;;;;;11.18;77.20;98158.38;4289963;33;34366;-65
2022/04/23 03:43:05;;;;;;;19.87;12.45;;;;;;;11.13;77.89;98165.50;4289064;33;33787;-73
2022/04/23 03:45:33;;;;;;;22.02;12.98;;;;;;;11.34;77.03;98163.09;4289929;33;35648;-67
2022/04/23 03:48:02;;;;;;;20.65;11.93;;;;;;;11.27;76.39;98161.59;4288979;33;34386;-64
2022/04/23 03:50:30;;;;;;;19.58;11.98;;;;;;;10.96;78.34;98162.59;4288920;33;33331;-64
2022/04/23 03:52:58;;;;;;;21.62;12.57;;;;;;;11.31;76.36;98161.47;4288479;33;33932;-68
2022/04/23 03:55:26;;;;;;;17.85;12.00;;;;;;;11.80;74.80;98160.69;4289735;33;36103;-66
2022/04/23 03:57:54;;;;;;;20.25;12.52;;;;;;;10.96;78.21;98162.59;4288903;33;34537;-65
2022/04/23 04:00:23;;;;;;;22.60;12.65;;;;;;;10.88;78.74;98169.78;4290011;33;33419;-70
2022/04/23 04:02:53;;;;;;;20.10;12.75;;;;;;;11.20;78.30;98177.41;4289100;33;33952;-65
2022/04/23 04:05:22;;;;;;;22.52;13.57;;;;;;;11.54;76.34;98168.53;4277953;33;34440;-71
2022/04/23 04:07:52;;;;;;;20.40;13.18;;;;;;;10.90;79.26;98183.59;4284169;33;34495;-65
2022/04/23 04:10:22;;;;;;;20.55;12.25;;;;;;;11.21;77.71;98178.28;4289662;33;34380;-71
2022/04/23 04:12:52;;;;;;;19.80;12.52;;;;;;;10.61;80.80;98177.53;4283946;33;31991;-67
2022/04/23 04:15:20;;;;;;;18.58;11.73;;;;;;;10.89;79.70;98181.88;4289659;33;34080;-68
2022/04/23 04:17:52;;;;;;;19.40;11.98;;;;;;;10.69;80.59;98179.91;4288796;33;34889;-68
2022/04/23 04:20:21;;;;;;;19.23;11.98;;;;;;;10.76;80.43;98184.84;4288398;33;33739;-65
2022/04/23 04:22:50;;;;;;;20.62;11.85;;;;;;;11.23;77.74;98189.50;4288810;33;34154;-68
2022/04/23 04:25:18;;;;;;;25.08;13.23;;;;;;;11.13;78.26;98188.94;4289575;33;35151;-70
2022/04/23 04:27:46;;;;;;;19.23;11.95;;;;;;;10.84;79.68;98189.84;4288535;33;34006;-69
2022/04/23 04:30:14;;;;;;;17.05;11.07;;;;;;;11.03;78.23;98197.97;4288999;33;34319;-68
2022/04/23 04:32:48;;;;;;;20.90;11.35;;;;;;;11.35;77.24;98196.09;4288638;33;34806;-72
2022/04/23 04:35:16;;;;;;;17.70;11.00;;;;;;;11.45;76.61;98197.47;4288859;33;35094;-69
2022/04/23 04:37:44;;;;;;;19.75;11.68;;;;;;;11.53;76.54;98195.47;4288390;33;34546;-65
2022/04/23 04:40:13;;;;;;;16.48;11.15;;;;;;;11.67;76.53;98188.97;4289458;33;33519;-65
2022/04/23 04:42:41;;;;;;;17.15;10.90;;;;;;;11.71;75.84;98195.78;4288362;33;34831;-64
2022/04/23 04:45:09;;;;;;;17.45;10.60;;;;;;;11.62;74.97;98188.25;4289366;33;34851;-66
2022/04/23 04:47:37;;;;;;;15.32;9.40;;;;;;;11.94;73.91;98193.25;4290127;33;34508;-70
2022/04/23 04:50:06;;;;;;;17.98;10.85;;;;;;;12.01;74.14;98196.50;4291062;33;34146;-65
2022/04/23 04:52:34;;;;;;;13.82;9.43;;;;;;;11.84;75.08;98193.59;4283377;33;34857;-66
2022/04/23 04:55:03;;;;;;;15.82;9.85;;;;;;;12.33;72.89;98197.13;4291043;33;35776;-69
2022/04/23 04:57:30;;;;;;;15.18;9.75;;;;;;;12.11;73.39;98194.44;4290486;33;34599;-66
2022/04/23 04:59:58;;;;;;;14.52;9.68;;;;;;;12.05;74.07;98197.25;4291232;33;34254;-66
2022/04/23 05:02:27;;;;;;;14.07;9.55;;;;;;;11.74;75.68;98195.69;4290289;33;34049;-66
2022/04/23 05:04:55;;;;;;;18.23;10.30;;;;;;;11.84;75.70;98198.81;4290498;33;35064;-66
2022/04/23 05:07:23;;;;;;;17.42;10.73;;;;;;;11.85;75.65;98195.31;4290980;33;34590;-66
2022/04/23 05:09:51;;;;;;;16.55;10.95;;;;;;;12.09;75.21;98193.66;4289822;33;33717;-73
2022/04/23 05:12:19;;;;;;;14.38;9.88;;;;;;;12.21;74.85;98193.22;4290909;33;33886;-75
2022/04/23 05:14:47;;;;;;;16.52;9.98;;;;;;;12.25;74.42;98197.41;4291236;33;34833;-73
2022/04/23 05:17:18;;;;;;;14.95;9.88;;;;;;;11.59;77.67;98207.44;4289875;33;34475;-74
2022/04/23 05:19:46;;;;;;;18.75;11.27;;;;;;;11.87;76.59;98198.72;4290118;33;33452;-65
2022/04/23 05:22:14;;;;;;;16.05;10.02;;;;;;;11.70;77.12;98204.47;4287687;33;33826;-68
2022/04/23 05:24:42;;;;;;;15.73;9.90;;;;;;;11.73;76.50;98215.66;4290904;33;34503;-67
2022/04/23 05:27:10;;;;;;;14.95;9.25;;;;;;;11.79;76.60;98214.62;4289957;33;34661;-66
2022/04/23 05:29:38;;;;;;;15.82;9.75;;;;;;;11.75;76.18;98211.28;4290991;33;33403;-66
2022/04/23 05:32:07;;;;;;;15.65;10.35;;;;;;;11.39;77.99;98215.94;4290082;33;33985;-66
2022/04/23 05:34:35;;;;;;;14.43;9.50;;;;;;;11.76;76.42;98218.19;4290959;33;35832;-66
2022/04/23 05:37:04;;;;;;;14.55;9.48;;;;;;;11.43;77.77;98227.13;4285671;33;34581;-67
2022/04/23 05:39:32;;;;;;;13.93;8.93;;;;;;;11.73;76.58;98222.66;4290260;33;33491;-66
2022/04/23 05:42:00;;;;;;;15.32;9.50;;;;;;;11.87;76.31;98211.75;4289985;33;33735;-66
2022/04/23 05:44:28;;;;;;;14.52;9.38;;;;;;;11.91;75.35;98214.25;4291202;33;35875;-66
2022/04/23 05:46:56;;;;;;;12.90;9.27;;;;;;;12.05;75.10;98218.13;4288247;33;34486;-66
2022/04/23 05:49:24;;;;;;;15.32;9.35;;;;;;;12.67;73.19;98222.84;4290771;33;33613;-66
2022/04/23 05:52:12;;;;;;;15.13;8.82;;;;;;;12.33;73.86;98228.44;4290144;33;34169;-66
2022/04/23 05:54:40;;;;;;;14.45;9.05;;;;;;;12.46;73.46;98232.31;4289940;33;35990;-66
2022/04/23 05:57:08;;;;;;;14.38;9.07;;;;;;;12.16;74.55;98230.78;4288578;33;35038;-66
2022/04/23 05:59:36;;;;;;;14.30;9.00;;;;;;;12.79;71.71;98228.50;4290961;33;33722;-65
2022/04/23 06:02:04;;;;;;;14.52;9.48;;;;;;;12.89;71.44;98224.66;4290003;33;34723;-67
2022/04/23 06:04:38;;;;;;;14.68;8.40;;;;;;;13.24;70.28;98233.72;4276506;33;35130;-66
2022/04/23 06:07:06;;;;;;;16.15;9.15;;;;;;;13.53;69.48;98243.97;4276302;33;34605;-66
2022/04/23 06:09:34;;;;;;;13.77;8.63;;;;;;;13.73;70.25;98254.50;4291238;33;33606;-67
2022/04/23 06:12:03;;;;;;;16.42;9.80;;;;;;;13.48;71.29;98254.59;4289226;33;34548;-66
2022/04/23 06:14:30;;;;;;;17.25;8.10;;;;;;;13.88;70.13;98249.53;4290507;33;34986;-66
2022/04/23 06:16:58;;;;;;;13.15;8.45;;;;;;;13.45;72.42;98250.38;4291028;33;35281;-67
2022/04/23 06:19:30;;;;;;;13.20;8.38;;;;;;;13.54;70.93;98248.31;4288944;33;34431;-66
2022/04/23 06:21:59;;;;;;;10.98;7.78;;;;;;;13.68;71.69;98260.81;4290645;33;33809;-66
2022/04/23 17:47:10;;;;;;;20.48;12.68;;;;;;;14.02;67.61;98459.19;4244187;33;20141;-72
2022/04/23 17:49:40;;;;;;;19.55;12.63;;;;;;;13.89;68.43;98460.56;4266241;28;33694;-74
2022/04/23 17:52:08;;;;;;;18.62;11.07;;;;;;;13.81;68.71;98472.19;4290288;33;34255;-72
2022/04/23 17:54:36;;;;;;;17.83;10.60;;;;;;;14.49;64.91;98474.78;4290827;33;33992;-73
2022/04/23 17:57:05;;;;;;;19.87;12.32;;;;;;;13.84;66.91;98468.63;4285969;33;36056;-75
2022/04/23 17:59:33;;;;;;;24.67;13.93;;;;;;;13.98;66.62;98475.94;4289606;33;34353;-74
2022/04/23 18:07:36;;;;;;;;;;;;;;;14.20;65.49;98497.75;4288573;33;35936;-72
2022/04/23 18:10:05;;;;;;;24.40;14.77;;;;;;;14.44;63.41;98497.69;4290748;33;34686;-73
2022/04/23 18:12:39;;;;;;;36.00;18.75;;;;;;;13.35;67.45;98502.66;4287837;33;33606;-70
2022/04/23 18:15:09;;;;;;;34.20;19.05;;;;;;;13.16;69.28;98501.56;4291019;33;34000;-73
2022/04/23 18:17:37;;;;;;;28.12;16.52;;;;;;;13.68;67.81;98493.63;4289844;33;35142;-74
2022/04/23 18:20:05;;;;;;;37.30;20.67;;;;;;;13.42;69.05;98491.06;4290687;33;34350;-72
2022/04/23 18:22:34;;;;;;;36.50;20.10;;;;;;;12.79;72.98;98493.19;4289665;33;33545;-73
2022/04/23 18:25:02;;;;;;;31.00;18.30;;;;;;;12.82;73.93;98492.25;4289889;33;34124;-74
2022/04/23 18:27:31;;;;;;;32.67;19.23;;;;;;;13.15;73.28;98495.50;4289963;33;35884;-74
2022/04/23 18:29:59;;;;;;;29.00;19.00;;;;;;;13.14;72.75;98499.00;4290254;33;34285;-73
2022/04/23 18:32:27;;;;;;;30.10;17.62;;;;;;;12.93;73.91;98497.97;4288868;33;33602;-74
2022/04/23 18:34:55;;;;;;;30.30;17.65;;;;;;;13.05;73.98;98489.72;4290728;33;34037;-71
2022/04/23 18:37:24;;;;;;;25.62;15.80;;;;;;;12.96;74.24;98494.41;4289530;33;35139;-73
2022/04/23 18:39:52;;;;;;;27.05;17.23;;;;;;;13.27;72.86;98497.66;4289806;33;34467;-72
2022/04/23 18:42:19;;;;;;;30.00;17.58;;;;;;;13.23;72.61;98492.59;4288937;33;33594;-72
2022/04/23 18:44:48;;;;;;;30.85;17.92;;;;;;;13.25;72.70;98490.78;4289418;33;34895;-73
2022/04/23 18:47:16;;;;;;;31.00;17.55;;;;;;;13.38;71.44;98486.00;4285701;33;36023;-74
2022/04/23 18:49:44;;;;;;;30.37;16.45;;;;;;;13.29;71.78;98489.78;4276016;33;34287;-73
2022/04/23 18:52:13;;;;;;;30.10;16.33;;;;;;;12.90;73.43;98492.87;4284812;33;34323;-71
2022/04/23 18:54:41;;;;;;;24.05;14.82;;;;;;;12.95;73.32;98485.69;4277372;33;34872;-70
2022/04/23 18:57:09;;;;;;;33.38;16.25;;;;;;;12.80;73.91;98483.63;4284368;33;35197;-72
2022/04/23 18:59:39;;;;;;;30.95;17.65;;;;;;;13.18;72.15;98482.31;4276470;33;33014;-70
2022/04/23 19:02:09;;;;;;;27.35;16.65;;;;;;;12.86;73.08;98488.62;4289709;33;33640;-72
2022/04/23 19:04:37;;;;;;;34.45;21.20;;;;;;;12.70;73.89;98483.91;4289326;33;34766;-70
2022/04/23 19:07:06;;;;;;;30.27;17.10;;;;;;;12.66;74.18;98487.53;4287904;33;36052;-70
2022/04/23 19:09:34;;;;;;;29.95;17.30;;;;;;;12.54;74.58;98490.56;4289798;33;35102;-74
2022/04/23 19:12:02;;;;;;;33.15;19.08;;;;;;;12.42;75.08;98489.19;4284057;33;33526;-70
2022/04/23 19:14:30;;;;;;;27.73;16.80;;;;;;;12.42;75.04;98483.97;4289185;33;34765;-71
2022/04/23 19:17:00;;;;;;;29.37;17.33;;;;;;;12.52;74.42;98484.53;4289454;33;34941;-71
2022/04/23 19:19:27;;;;;;;27.80;16.00;;;;;;;12.54;74.47;98493.16;4290467;33;34456;-71
2022/04/23 19:27:29;;;;;;;32.60;17.85;;;;;;;13.03;70.94;98496.75;4289712;33;35950;-70
2022/04/23 19:29:58;;;;;;;25.05;15.90;;;;;;;12.67;72.91;98504.94;4290631;33;34090;-70
2022/04/23 19:32:26;;;;;;;24.37;15.05;;;;;;;12.48;74.38;98502.06;4289546;33;33549;-73
2022/04/23 19:34:55;;;;;;;26.67;16.37;;;;;;;12.26;74.84;98501.88;4290419;33;34692;-70
2022/04/23 19:37:23;;;;;;;26.08;14.93;;;;;;;12.27;75.38;98505.34;4289586;33;35167;-70
2022/04/23 19:39:51;;;;;;;25.92;16.35;;;;;;;12.35;75.55;98510.31;4277416;33;35283;-70
2022/04/23 19:42:20;;;;;;;27.23;16.00;;;;;;;12.14;76.99;98515.28;4288764;33;33844;-70
2022/04/23 19:44:49;;;;;;;29.95;16.58;;;;;;;12.05;76.79;98518.19;4290349;33;34678;-70
2022/04/23 19:47:17;;;;;;;27.42;17.05;;;;;;;12.06;77.00;98518.12;4289455;33;36008;-70
2022/04/23 19:49:45;;;;;;;30.30;17.23;;;;;;;12.37;76.40;98516.34;4289239;33;35318;-70
2022/04/23 19:52:13;;;;;;;27.62;17.27;;;;;;;12.36;77.06;98514.66;4289419;33;33847;-70
2022/04/23 19:54:43;;;;;;;28.73;17.55;;;;;;;12.71;75.81;98506.53;4290211;33;34033;-70
2022/04/23 19:57:12;;;;;;;27.15;16.10;;;;;;;12.59;76.54;98508.69;4289456;33;35145;-70
2022/04/23 19:59:40;;;;;;;26.08;15.68;;;;;;;12.55;77.21;98510.56;4289421;33;35359;-70
2022/04/23 20:02:08;;;;;;;28.40;16.67;;;;;;;13.17;74.61;98505.91;4289423;33;33801;-70
2022/04/23 20:04:37;;;;;;;26.12;14.95;;;;;;;13.11;74.44;98508.69;4289432;33;34026;-71
2022/04/23 20:07:06;;;;;;;26.00;15.00;;;;;;;12.91;75.13;98507.63;4289250;33;35140;-70
2022/04/23 20:09:34;;;;;;;36.08;20.10;;;;;;;12.91;75.36;98502.41;4290090;33;34815;-71
2022/04/23 20:12:03;;;;;;;26.67;16.23;;;;;;;13.24;74.45;98510.84;4289175;33;33754;-71
2022/04/23 20:14:31;;;;;;;34.70;22.00;;;;;;;13.23;74.12;98510.91;4290083;33;34858;-73
2022/04/23 20:16:59;;;;;;;33.05;17.10;;;;;;;13.55;72.94;98512.38;4288404;33;35880;-70
2022/04/23 20:19:27;;;;;;;31.90;20.02;;;;;;;13.21;73.91;98520.56;4289054;33;34342;-72
2022/04/23 20:21:55;;;;;;;33.88;20.62;;;;;;;13.03;74.49;98512.44;4289162;33;33752;-70
2022/04/23 20:24:23;;;;;;;29.25;18.33;;;;;;;13.44;73.15;98514.56;4289974;33;34126;-70
2022/04/23 20:26:51;;;;;;;31.23;18.00;;;;;;;13.43;72.72;98511.09;4289247;33;35935;-70
2022/04/23 20:29:22;;;;;;;27.77;16.83;;;;;;;13.64;71.63;98508.59;4289928;33;34503;-70
2022/04/23 20:31:50;;;;;;;27.65;16.45;;;;;;;13.59;71.86;98510.53;4289313;33;33627;-70
2022/04/23 20:34:18;;;;;;;28.35;16.67;;;;;;;13.49;72.23;98520.47;4289111;33;33915;-71
2022/04/23 20:39:50;;;;;;;29.50;17.37;;;;;;;13.64;71.58;98508.59;4289786;33;34657;-71
2022/04/23 20:42:18;;;;;;;31.30;16.62;;;;;;;13.34;72.34;98514.03;4288895;33;33695;-70
2022/04/23 20:44:46;;;;;;;26.85;15.70;;;;;;;13.41;72.07;98514.66;4289805;33;33992;-70
2022/04/23 20:47:15;;;;;;;29.90;16.17;;;;;;;13.58;71.12;98511.44;4275702;33;33620;-70
2022/04/23 20:49:42;;;;;;;29.95;15.93;;;;;;;13.69;70.79;98511.03;4288602;33;35140;-70
2022/04/23 20:54:57;;;;;;;;;;;;;;;13.71;70.58;98499.63;4275584;33;33942;-70
2022/04/23 20:57:25;;;;;;;26.52;14.90;;;;;;;14.32;68.33;98506.87;4285368;33;36131;-74
2022/04/23 20:59:53;;;;;;;26.37;15.15;;;;;;;13.69;70.53;98504.03;4289632;33;34403;-74
2022/04/23 21:02:21;;;;;;;31.08;16.00;;;;;;;13.73;70.69;98503.03;4289058;33;34374;-74
2022/04/23 21:04:50;;;;;;;27.92;15.05;;;;;;;13.46;71.93;98500.53;4289405;33;33927;-73
2022/04/23 21:07:18;;;;;;;28.05;15.45;;;;;;;13.15;73.45;98503.31;4289254;33;35864;-74
2022/04/23 21:09:49;;;;;;;25.35;15.05;;;;;;;13.43;72.67;98505.00;4289241;33;34450;-74
2022/04/23 21:12:17;;;;;;;25.52;14.63;;;;;;;13.27;72.82;98505.53;4288478;33;33668;-72
2022/04/23 21:14:45;;;;;;;27.52;15.20;;;;;;;13.42;72.56;98498.91;4288528;33;33943;-71
2022/04/23 21:17:13;;;;;;;33.13;16.80;;;;;;;13.68;71.22;98504.97;4288434;33;35015;-70
2022/04/23 21:19:41;;;;;;;30.10;14.40;;;;;;;13.93;70.36;98510.13;4289228;33;35407;-71
2022/04/23 21:22:09;;;;;;;27.08;14.57;;;;;;;13.48;72.49;98517.91;4288403;33;34606;-74
2022/04/23 21:24:38;;;;;;;26.95;16.37;;;;;;;13.54;72.47;98504.63;4288178;33;33887;-70
2022/04/23 21:27:07;;;;;;;26.37;14.80;;;;;;;13.57;71.75;98504.50;4275344;33;33639;-70
2022/04/23 21:29:35;;;;;;;27.75;15.18;;;;;;;13.60;71.89;98501.78;4291140;33;35366;-70
2022/04/23 21:32:03;;;;;;;22.33;13.90;;;;;;;14.21;69.41;98496.00;4290362;33;33944;-70
2022/04/23 21:34:31;;;;;;;25.50;15.38;;;;;;;13.55;72.37;98498.47;4291179;33;34801;-70
2022/04/23 21:36:59;;;;;;;26.23;14.75;;;;;;;13.99;70.48;98503.81;4290364;33;35849;-70
2022/04/23 21:39:27;;;;;;;27.10;15.70;;;;;;;13.38;72.72;98505.16;4290219;33;34476;-71
2022/04/23 21:45:00;;;;;;;26.25;15.48;;;;;;;13.86;71.54;98503.44;4259532;33;33781;-70
2022/04/23 21:47:29;;;;;;;23.45;14.48;;;;;;;13.43;73.29;98495.41;4284502;33;35967;-74
2022/04/23 21:49:57;;;;;;;24.85;15.23;;;;;;;12.94;75.35;98486.63;4290689;33;34701;-70
2022/04/23 21:52:26;;;;;;;24.87;14.32;;;;;;;12.95;75.67;98492.69;4290223;33;33779;-70
2022/04/23 21:54:55;;;;;;;25.12;14.73;;;;;;;13.40;73.79;98490.28;4290250;33;34055;-70
2022/04/23 21:57:23;;;;;;;26.67;15.00;;;;;;;13.09;75.13;98498.28;4290469;33;35972;-70
2022/04/23 21:59:52;;;;;;;26.20;13.52;;;;;;;12.86;76.44;98493.84;4277985;33;34515;-70
2022/04/23 22:02:20;;;;;;;29.58;15.27;;;;;;;13.37;74.79;98498.22;4290104;33;33854;-70
2022/04/23 22:04:49;;;;;;;26.45;13.52;;;;;;;13.55;74.00;98488.84;4290133;33;33882;-70
2022/04/23 22:07:19;;;;;;;22.98;13.10;;;;;;;13.28;75.31;98490.66;4277084;33;35120;-70
2022/04/23 22:09:49;;;;;;;23.48;13.90;;;;;;;13.16;75.79;98486.72;4290846;33;34477;-70
2022/04/23 22:12:18;;;;;;;22.85;13.23;;;;;;;12.93;76.97;98478.84;4276390;33;34566;-70
2022/04/23 22:14:46;;;;;;;25.20;15.25;;;;;;;13.25;75.85;98473.34;4291185;33;34693;-70
2022/04/23 22:17:14;;;;;;;20.30;12.37;;;;;;;13.34;75.51;98466.97;4288896;33;35070;-70
2022/04/23 22:19:42;;;;;;;24.25;13.20;;;;;;;13.20;75.86;98474.41;4291099;33;35326;-70
2022/04/23 22:22:10;;;;;;;22.05;12.85;;;;;;;13.11;76.31;98478.19;4289797;33;33837;-70
2022/04/23 22:24:38;;;;;;;22.13;13.00;;;;;;;13.44;75.42;98475.31;4290841;33;33734;-70
2022/04/23 22:27:06;;;;;;;22.10;13.10;;;;;;;12.89;77.79;98478.09;4289186;33;35715;-70
2022/04/23 22:29:34;;;;;;;24.17;13.05;;;;;;;13.03;77.13;98470.63;4290743;33;34366;-70
2022/04/23 22:32:03;;;;;;;25.15;13.88;;;;;;;12.82;78.01;98473.97;4290205;33;33730;-70
2022/04/23 22:34:31;;;;;;;22.33;13.80;;;;;;;12.93;77.96;98468.37;4290741;33;33888;-71
2022/04/23 22:36:59;;;;;;;22.58;14.25;;;;;;;12.71;78.77;98477.78;4277007;33;36001;-70
2022/04/23 22:39:27;;;;;;;24.37;13.35;;;;;;;12.93;78.13;98469.22;4288884;33;35359;-71
2022/04/23 22:41:55;;;;;;;21.58;12.70;;;;;;;12.97;78.02;98470.84;4289998;33;33670;-71
2022/04/23 22:44:24;;;;;;;25.15;13.52;;;;;;;13.27;75.97;98462.81;4290700;33;33493;-71
2022/04/23 22:46:52;;;;;;;23.35;13.62;;;;;;;12.81;78.30;98460.06;4289801;33;35006;-71
2022/04/23 22:49:20;;;;;;;22.05;13.85;;;;;;;12.58;79.63;98457.34;4290554;33;34332;-73
2022/04/23 22:51:48;;;;;;;24.75;13.38;;;;;;;12.86;78.48;98445.06;4289795;33;34447;-76
2022/04/23 22:54:17;;;;;;;21.42;13.00;;;;;;;12.62;79.37;98446.78;4290506;33;33990;-75
2022/04/23 22:56:46;;;;;;;22.37;12.85;;;;;;;13.14;77.04;98440.66;4289108;33;35850;-76
2022/04/23 22:59:14;;;;;;;19.23;12.32;;;;;;;12.81;78.38;98439.16;4263448;33;35381;-70
2022/04/23 23:01:42;;;;;;;23.12;12.98;;;;;;;13.07;77.59;98435.62;4287276;33;33458;-73
2022/04/23 23:04:11;;;;;;;22.58;13.40;;;;;;;13.05;76.50;98432.22;4289475;33;32513;-71
2022/04/23 23:06:39;;;;;;;22.27;12.98;;;;;;;12.89;77.00;98431.06;4290608;33;35093;-71